Time;durP1;ratioP1;P1;durP2;ratioP2;P2;SDS_P1;SDS_P2;PMS_P1;PMS_P2;Temp;Humidity;BMP_temperature;BMP_pressure;BME280_temperature;BME280_humidity;BME280_pressure;Samples;Min_cycle;Max_cycle;Signal;HPM_P1;HPM_P2
2023/09/07 00:05:56;;;;;;;9.70;5.35;;;15.40;99.90;;;;;;4973678;28;20201;-94
2023/09/07 00:08:25;;;;;;;5.88;5.18;;;15.30;99.90;;;;;;4964215;28;20201;-94
2023/09/07 00:10:52;;;;;;;5.43;4.93;;;15.20;99.90;;;;;;4988005;28;20701;-94
2023/09/07 00:19:11;;;;;;;7.00;5.28;;;15.10;99.90;;;;;;4968449;28;20580;-93
2023/09/07 00:35:50;;;;;;;6.28;5.50;;;14.70;99.90;;;;;;4951926;28;20262;-94
2023/09/07 00:44:16;;;;;;;10.00;5.78;;;14.60;99.90;;;;;;4904408;29;20213;-93
2023/09/07 01:13:07;;;;;;;7.13;6.30;;;14.40;99.90;;;;;;4903259;29;20190;-94
2023/09/07 01:15:35;;;;;;;7.43;6.65;;;14.40;99.90;;;;;;4896735;28;20632;-94
2023/09/07 01:29:13;;;;;;;6.53;5.63;;;14.40;99.90;;;;;;4964104;28;20624;-94
2023/09/07 01:34:20;;;;;;;6.95;6.00;;;14.40;99.90;;;;;;4979365;28;20303;-94
2023/09/07 01:36:48;;;;;;;6.95;6.25;;;14.40;99.90;;;;;;4983071;28;20219;-94
2023/09/07 01:42:22;;;;;;;5.93;5.32;;;14.30;99.90;;;;;;4932446;28;20207;-94
2023/09/07 01:47:30;;;;;;;5.75;5.22;;;14.30;99.90;;;;;;4946557;28;20681;-94
2023/09/07 02:08:03;;;;;;;7.75;6.00;;;13.90;99.90;;;;;;4941003;29;20186;-94
2023/09/07 02:43:03;;;;;;;6.40;5.80;;;13.50;99.90;;;;;;4937083;29;20190;-94
2023/09/07 03:02:36;;;;;;;6.78;5.72;;;13.10;99.90;;;;;;4982826;28;20219;-94
2023/09/07 03:24:57;;;;;;;7.30;5.82;;;13.00;99.90;;;;;;4793302;29;20249;-94
2023/09/07 03:33:36;;;;;;;7.68;5.93;;;12.90;99.90;;;;;;4905770;29;20218;-94
2023/09/07 03:39:10;;;;;;;10.95;5.65;;;12.80;99.90;;;;;;4919871;29;20225;-94
2023/09/07 04:19:28;;;;;;;6.72;4.85;;;12.70;99.90;;;;;;5020147;23;20304;-95
2023/09/07 04:28:14;;;;;;;6.95;5.53;;;12.50;99.90;;;;;;4973465;28;20216;-95
2023/09/07 04:31:02;;;;;;;6.57;5.07;;;12.40;99.90;;;;;;4938071;28;20558;-94
2023/09/07 04:36:38;;;;;;;5.75;5.20;;;12.40;99.90;;;;;;4939632;28;20207;-94
2023/09/07 04:44:45;;;;;;;7.10;5.10;;;12.30;99.90;;;;;;4901234;29;20245;-95
2023/09/07 05:30:05;;;;;;;9.40;6.18;;;12.80;99.90;;;;;;5394364;23;20477;-88
2023/09/07 05:35:16;;;;;;;5.32;4.80;;;12.90;99.90;;;;;;4989885;28;20220;-90
2023/09/07 05:37:43;;;;;;;6.32;5.07;;;12.90;99.90;;;;;;4980900;28;20298;-89
2023/09/07 05:40:11;;;;;;;10.57;5.18;;;13.00;99.90;;;;;;4984816;28;20203;-90
2023/09/07 05:42:38;;;;;;;9.30;5.10;;;12.90;99.90;;;;;;4989818;28;20585;-90
2023/09/07 05:45:06;;;;;;;9.18;5.00;;;13.00;99.90;;;;;;4991267;28;20530;-89
2023/09/07 05:47:35;;;;;;;5.88;4.82;;;13.10;99.90;;;;;;4993875;28;20200;-90
2023/09/07 05:50:07;;;;;;;8.32;5.10;;;13.10;99.90;;;;;;4982272;28;20265;-90
2023/09/07 05:52:34;;;;;;;7.70;5.88;;;13.10;99.90;;;;;;4956147;28;20256;-90
2023/09/07 05:55:01;;;;;;;6.38;5.18;;;13.10;99.90;;;;;;4959865;28;20316;-90
2023/09/07 05:57:28;;;;;;;6.43;5.30;;;13.10;99.90;;;;;;4973859;28;20197;-89
2023/09/07 05:59:55;;;;;;;7.28;6.10;;;13.20;99.90;;;;;;4971676;28;20204;-89
2023/09/07 06:02:23;;;;;;;9.13;5.20;;;13.30;99.90;;;;;;4968904;28;20297;-90
2023/09/07 06:04:51;;;;;;;8.90;5.78;;;13.30;99.90;;;;;;4965174;28;20205;-89
2023/09/07 06:07:18;;;;;;;8.98;6.30;;;13.40;99.90;;;;;;4969508;28;20205;-90
2023/09/07 06:09:45;;;;;;;7.60;6.80;;;13.50;99.90;;;;;;4961365;28;20216;-89
2023/09/07 06:12:12;;;;;;;9.95;6.65;;;13.50;99.90;;;;;;4971976;28;20211;-90
2023/09/07 06:14:39;;;;;;;9.98;6.68;;;13.70;99.90;;;;;;4961601;28;20202;-90
2023/09/07 06:17:06;;;;;;;14.88;10.85;;;13.70;99.90;;;;;;4967680;28;20205;-89
2023/09/07 06:19:34;;;;;;;9.73;7.20;;;13.90;99.90;;;;;;4953367;28;20259;-90
2023/09/07 06:22:02;;;;;;;11.23;7.53;;;14.00;99.90;;;;;;4964724;28;20580;-89
2023/09/07 06:24:29;;;;;;;8.18;7.30;;;14.10;99.90;;;;;;4966093;28;20204;-90
2023/09/07 06:26:56;;;;;;;11.32;7.97;;;14.30;99.90;;;;;;4962914;28;20658;-90
2023/09/07 06:29:23;;;;;;;9.10;8.00;;;14.40;99.90;;;;;;4950712;28;20653;-90
2023/09/07 06:31:52;;;;;;;10.77;8.27;;;14.50;99.90;;;;;;4965200;28;20235;-90
2023/09/07 06:34:18;;;;;;;12.02;8.38;;;14.60;99.90;;;;;;4972736;28;20559;-90
2023/09/07 06:36:45;;;;;;;232.40;197.18;;;14.70;99.90;;;;;;4966158;28;20689;-90
2023/09/07 06:39:14;;;;;;;92.65;79.22;;;15.10;99.90;;;;;;4959684;28;20616;-90
2023/09/07 06:41:41;;;;;;;42.00;33.83;;;15.60;99.90;;;;;;4967549;28;20287;-89
2023/09/07 06:44:08;;;;;;;86.50;75.28;;;15.90;99.90;;;;;;4972455;28;20270;-90
2023/09/07 06:46:35;;;;;;;29.83;22.95;;;16.10;99.90;;;;;;4965137;28;20208;-89
2023/09/07 06:49:03;;;;;;;35.08;29.83;;;16.30;99.90;;;;;;4969365;28;20212;-90
2023/09/07 06:51:31;;;;;;;11.48;9.60;;;16.30;99.90;;;;;;4959546;28;20732;-89
2023/09/07 06:53:58;;;;;;;35.92;28.00;;;16.20;99.80;;;;;;4960271;28;20212;-90
2023/09/07 06:59:07;;;;;;;222.77;199.23;;;16.70;99.90;;;;;;4975135;28;20319;-90
2023/09/07 07:45:42;;;;;;;10.93;8.10;;;17.80;97.60;;;;;;5102191;23;20216;-95
2023/09/07 07:50:53;;;;;;;18.20;16.17;;;18.00;97.20;;;;;;4979066;29;20686;-96
2023/09/07 07:53:19;;;;;;;11.80;7.07;;;18.10;97.70;;;;;;4978486;29;20207;-95
2023/09/07 07:55:48;;;;;;;11.32;7.32;;;18.20;96.70;;;;;;4977896;29;20223;-96
2023/09/07 07:58:15;;;;;;;9.35;6.82;;;18.30;96.40;;;;;;4968960;29;20209;-92
2023/09/07 08:00:47;;;;;;;7.57;6.85;;;18.30;96.40;;;;;;4960441;29;20561;-92
2023/09/07 08:03:16;;;;;;;9.02;7.05;;;18.40;96.20;;;;;;4959503;28;20201;-91
2023/09/07 08:05:43;;;;;;;10.27;7.60;;;18.40;95.90;;;;;;4947124;28;20322;-94
2023/09/07 12:55:44;;;;;;;6.93;5.28;;;26.60;22.90;;;;;;6183039;22;20915;31
2023/09/07 13:03:50;;;;;;;5.80;4.82;;;26.60;22.40;;;;;;6205735;22;20421;-93
2023/09/07 13:08:58;;;;;;;8.32;5.90;;;26.50;24.50;;;;;;6225458;23;20216;-92
2023/09/07 13:11:27;;;;;;;7.60;4.40;;;26.30;24.40;;;;;;6246694;23;20169;-90
2023/09/07 13:13:54;;;;;;;5.95;5.20;;;26.30;24.60;;;;;;6210305;23;20199;-91
2023/09/07 13:16:21;;;;;;;8.18;5.03;;;26.40;24.60;;;;;;6171815;23;20296;-91
2023/09/07 13:23:56;;;;;;;5.70;4.60;;;26.30;23.60;;;;;;6189613;23;20131;-91
2023/09/07 13:26:24;;;;;;;5.93;5.10;;;26.30;25.30;;;;;;6184564;23;20162;-91
2023/09/07 13:28:52;;;;;;;5.00;4.60;;;26.30;23.50;;;;;;6182985;23;20151;-91
2023/09/07 13:31:20;;;;;;;5.35;4.40;;;26.30;24.20;;;;;;6183140;23;20158;-91
2023/09/07 14:20:27;;;;;;;5.10;4.60;;;25.90;21.30;;;;;;6175480;23;20220;-94
2023/09/07 14:49:08;;;;;;;5.88;4.78;;;25.70;19.80;;;;;;6178644;23;21100;-93
2023/09/07 15:16:04;;;;;;;4.50;4.10;;;25.30;19.80;;;;;;6162644;22;20199;-91
2023/09/07 15:23:43;;;;;;;5.50;4.00;;;25.20;20.00;;;;;;6160861;23;20450;-90
2023/09/07 15:42:10;;;;;;;4.57;4.10;;;25.00;19.50;;;;;;6152917;23;20226;-94
2023/09/07 15:47:12;;;;;;;5.68;4.03;;;25.00;19.30;;;;;;6150706;23;20218;-93
2023/09/07 15:52:13;;;;;;;4.38;3.97;;;24.90;18.70;;;;;;6125552;23;20218;-93
2023/09/07 16:10:42;;;;;;;6.00;4.82;;;24.80;19.80;;;;;;5324154;22;20588;-93
2023/09/07 16:13:10;;;;;;;7.22;4.38;;;24.60;20.20;;;;;;5070651;28;20273;-93
2023/09/07 16:15:37;;;;;;;6.20;4.03;;;24.60;20.20;;;;;;5070850;28;20181;-93
2023/09/07 16:18:04;;;;;;;5.40;4.20;;;24.50;20.50;;;;;;5054350;28;20197;-93
2023/09/07 16:20:32;;;;;;;9.55;4.55;;;24.40;20.80;;;;;;5064121;28;20259;-91
2023/09/07 16:46:35;;;;;;;7.00;4.20;;;24.00;21.80;;;;;;5072306;28;20637;-92
2023/09/07 16:49:03;;;;;;;5.75;4.20;;;23.60;24.60;;;;;;5070865;28;20201;-92
2023/09/07 16:51:31;;;;;;;4.43;3.90;;;23.40;24.50;;;;;;5060633;28;21700;-90
2023/09/07 16:53:58;;;;;;;6.60;4.15;;;23.40;24.50;;;;;;5049122;28;20198;-93
2023/09/07 16:56:27;;;;;;;6.85;4.47;;;23.40;24.40;;;;;;5060244;28;20284;-94
2023/09/07 16:58:57;;;;;;;4.50;4.10;;;23.40;24.40;;;;;;5048618;28;20212;-94
2023/09/07 17:01:24;;;;;;;6.43;4.57;;;23.40;24.60;;;;;;5056595;28;20190;-95
2023/09/07 17:03:57;;;;;;;5.25;4.57;;;23.30;24.90;;;;;;5061954;28;20179;-92
2023/09/07 18:08:38;;;;;;;9.70;6.53;;;20.30;81.00;;;;;;5090602;28;20224;-92
2023/09/07 18:11:07;;;;;;;8.80;5.20;;;20.20;82.60;;;;;;5083215;28;20205;-92
2023/09/07 18:20:45;;;;;;;11.85;8.18;;;20.00;85.90;;;;;;5084680;28;20200;-93
2023/09/07 18:23:31;;;;;;;12.13;7.35;;;20.00;86.50;;;;;;5070753;28;20205;-93
2023/09/07 18:26:00;;;;;;;7.40;5.85;;;20.00;86.70;;;;;;5089330;28;20292;-94
2023/09/07 18:31:53;;;;;;;10.50;6.20;;;19.80;87.10;;;;;;5094975;28;20185;-94
2023/09/07 18:34:23;;;;;;;9.18;6.10;;;19.80;87.70;;;;;;5069051;28;20225;-91
2023/09/07 18:36:50;;;;;;;8.65;6.00;;;19.80;87.90;;;;;;5073527;28;20206;-90
2023/09/07 18:39:17;;;;;;;8.25;6.53;;;19.80;88.60;;;;;;5067837;28;20194;-90
2023/09/07 18:41:46;;;;;;;8.02;6.30;;;19.70;89.10;;;;;;5068759;28;20236;-91
2023/09/07 18:44:14;;;;;;;9.00;7.00;;;19.60;89.90;;;;;;5048278;28;20209;-91
2023/09/07 18:46:42;;;;;;;10.68;6.95;;;19.60;90.20;;;;;;5042081;28;20197;-91
2023/09/07 18:49:12;;;;;;;9.13;7.18;;;19.60;90.20;;;;;;5065114;28;20652;-92
2023/09/07 18:51:39;;;;;;;9.07;6.57;;;19.50;90.40;;;;;;5060734;28;20232;-91
2023/09/07 18:54:07;;;;;;;11.07;6.60;;;19.50;90.50;;;;;;5016932;28;20235;-92
2023/09/07 18:56:35;;;;;;;11.93;6.60;;;19.50;90.60;;;;;;5004530;28;20220;-91
2023/09/07 18:59:04;;;;;;;9.85;6.57;;;19.40;90.70;;;;;;4973542;28;20214;-91
2023/09/07 19:01:31;;;;;;;7.97;6.50;;;19.30;90.90;;;;;;5009239;28;20249;-91
2023/09/07 19:04:09;;;;;;;7.43;6.57;;;19.20;91.00;;;;;;4974765;28;20211;-92
2023/09/07 19:06:37;;;;;;;13.07;6.57;;;19.10;91.50;;;;;;5001883;28;20211;-91
2023/09/07 19:09:04;;;;;;;7.95;6.53;;;19.00;91.80;;;;;;4987999;28;20191;-94
2023/09/07 19:11:39;;;;;;;10.18;6.63;;;18.90;92.40;;;;;;5029939;28;20186;-92
2023/09/07 19:16:48;;;;;;;10.32;7.18;;;18.80;92.30;;;;;;5008298;28;20204;-92
2023/09/07 19:19:15;;;;;;;10.40;7.07;;;18.80;92.40;;;;;;5002831;28;20262;-91
2023/09/07 19:21:55;;;;;;;10.43;7.03;;;18.90;92.40;;;;;;4989382;28;20258;-92
2023/09/07 19:27:07;;;;;;;9.43;7.22;;;18.80;92.40;;;;;;5006370;28;20204;-92
2023/09/07 19:29:39;;;;;;;12.63;7.45;;;18.70;92.30;;;;;;5004121;28;20725;-91
2023/09/07 19:32:17;;;;;;;10.18;7.55;;;18.60;92.60;;;;;;5003771;28;20321;-91
2023/09/07 19:34:46;;;;;;;11.20;8.95;;;18.50;92.30;;;;;;5005025;28;20725;-91
2023/09/07 19:37:13;;;;;;;9.20;8.23;;;18.60;92.30;;;;;;5006746;28;20200;-91
2023/09/07 19:39:40;;;;;;;15.73;13.45;;;18.50;92.30;;;;;;5003384;28;20287;-91
2023/09/07 19:42:07;;;;;;;17.80;12.55;;;18.50;92.30;;;;;;4981010;28;20227;-91
2023/09/07 19:44:37;;;;;;;23.77;21.15;;;18.50;92.30;;;;;;4990285;28;20203;-90
2023/09/07 19:47:09;;;;;;;10.38;8.43;;;18.60;92.30;;;;;;5005893;28;20295;-90
2023/09/07 19:49:41;;;;;;;15.32;10.23;;;18.60;91.80;;;;;;5003424;28;20202;-91
2023/09/07 19:54:49;;;;;;;10.77;8.50;;;18.50;91.60;;;;;;4991406;28;20231;-91
2023/09/07 19:57:17;;;;;;;12.38;6.20;;;18.40;91.70;;;;;;5005499;28;20203;-90
2023/09/07 19:59:58;;;;;;;13.90;8.80;;;18.40;91.60;;;;;;5001926;28;20215;-90
2023/09/07 20:02:46;;;;;;;10.38;7.38;;;18.40;91.70;;;;;;4996583;28;20210;-91
2023/09/07 20:05:12;;;;;;;10.45;7.50;;;18.40;91.80;;;;;;5001666;28;20207;-90
2023/09/07 20:07:43;;;;;;;11.30;6.85;;;18.40;91.40;;;;;;4999457;28;20215;-91
2023/09/07 20:10:10;;;;;;;9.55;6.40;;;18.40;91.30;;;;;;5004736;28;20210;-92
2023/09/07 20:12:38;;;;;;;9.65;7.88;;;18.30;91.40;;;;;;5008064;28;20210;-91
2023/09/07 20:15:08;;;;;;;10.95;7.60;;;18.30;91.60;;;;;;5000675;28;20227;-91
2023/09/07 20:17:35;;;;;;;10.80;7.88;;;18.30;91.60;;;;;;4980629;28;20714;-92
2023/09/07 20:20:03;;;;;;;7.93;7.07;;;18.30;91.40;;;;;;5000690;28;20294;-91
2023/09/07 20:22:30;;;;;;;9.90;8.70;;;18.30;91.40;;;;;;4997585;28;20203;-91
2023/09/07 20:24:57;;;;;;;11.35;8.93;;;18.40;91.50;;;;;;4995635;28;21299;-90
2023/09/07 20:30:15;;;;;;;8.52;7.63;;;18.40;91.10;;;;;;4989611;28;20199;-90
2023/09/07 20:32:42;;;;;;;11.90;7.55;;;18.30;91.40;;;;;;5002165;28;20201;-90
2023/09/07 20:35:10;;;;;;;11.38;8.65;;;18.20;91.60;;;;;;5003292;28;20771;-91
2023/09/07 20:37:37;;;;;;;9.80;8.15;;;18.30;92.00;;;;;;4981290;28;20264;-91
2023/09/07 20:40:12;;;;;;;12.23;8.20;;;18.20;92.20;;;;;;5003583;28;20287;-91
2023/09/07 20:42:41;;;;;;;9.02;7.20;;;18.20;92.20;;;;;;5009718;28;20195;-91
2023/09/07 20:45:10;;;;;;;11.93;8.07;;;18.20;92.50;;;;;;4982825;28;20246;-91
2023/09/07 20:47:37;;;;;;;10.10;7.43;;;18.20;92.40;;;;;;4986862;28;20668;-91
2023/09/07 20:50:06;;;;;;;12.70;7.05;;;18.10;92.60;;;;;;4997120;28;20195;-91
2023/09/07 20:52:53;;;;;;;9.85;6.75;;;17.90;92.70;;;;;;4987542;28;20203;-91
2023/09/07 20:55:21;;;;;;;9.65;6.82;;;17.80;93.20;;;;;;4988474;28;20711;-91
2023/09/07 20:58:09;;;;;;;12.85;7.10;;;17.70;93.40;;;;;;4973975;28;20200;-91
2023/09/07 21:03:42;;;;;;;8.98;7.20;;;17.50;94.00;;;;;;4989430;28;20218;-91
2023/09/07 21:06:18;;;;;;;7.80;6.35;;;17.40;94.30;;;;;;4972249;28;20204;-91
2023/09/07 21:09:05;;;;;;;8.27;7.22;;;17.30;94.40;;;;;;4987077;28;20210;-91
2023/09/07 21:11:32;;;;;;;8.48;7.20;;;17.30;95.00;;;;;;5003397;28;20428;-91
2023/09/07 21:13:59;;;;;;;11.52;7.72;;;17.30;94.80;;;;;;5002010;28;20667;-91
2023/09/07 21:16:28;;;;;;;9.50;7.53;;;17.20;94.90;;;;;;4986504;28;20223;-91
2023/09/07 21:18:55;;;;;;;13.18;10.90;;;17.20;95.20;;;;;;4983331;28;20238;-90
2023/09/07 21:21:22;;;;;;;10.63;7.50;;;17.20;95.30;;;;;;4988080;28;20203;-92
2023/09/07 21:23:50;;;;;;;9.75;7.00;;;17.10;95.40;;;;;;4987072;28;20195;-91
2023/09/07 21:26:37;;;;;;;13.70;8.63;;;17.10;95.60;;;;;;5004969;28;20200;-91
2023/09/07 21:29:07;;;;;;;9.80;8.50;;;17.00;96.00;;;;;;4985110;28;20203;-91
2023/09/07 21:31:36;;;;;;;11.15;7.60;;;16.90;96.10;;;;;;4984558;28;20294;-91
2023/09/07 21:34:03;;;;;;;11.98;7.43;;;16.80;96.30;;;;;;5003403;28;20212;-91
2023/09/07 21:36:30;;;;;;;8.80;7.57;;;16.80;96.20;;;;;;5006741;28;20225;-90
2023/09/07 21:39:03;;;;;;;9.70;8.45;;;16.70;96.40;;;;;;5011334;28;20254;-91
2023/09/07 21:44:38;;;;;;;12.10;7.60;;;16.80;97.30;;;;;;5007273;28;20200;-90
2023/09/07 21:47:30;;;;;;;9.70;7.50;;;16.80;96.90;;;;;;5008762;28;20204;-91
2023/09/07 21:50:02;;;;;;;12.07;7.65;;;16.80;96.80;;;;;;5010488;28;20199;-91
2023/09/07 21:52:31;;;;;;;8.90;8.00;;;16.70;97.10;;;;;;4974902;28;20231;-91
2023/09/07 21:55:00;;;;;;;11.57;7.90;;;16.70;97.30;;;;;;5001900;28;20257;-91
2023/09/07 21:57:27;;;;;;;10.55;7.65;;;16.60;97.30;;;;;;5003375;28;20261;-91
2023/09/07 21:59:56;;;;;;;11.40;7.90;;;16.50;97.30;;;;;;4991001;28;20211;-91
2023/09/07 22:05:15;;;;;;;11.30;7.50;;;16.40;97.80;;;;;;4977981;28;20215;-91
2023/09/07 22:07:43;;;;;;;8.93;7.72;;;16.40;98.00;;;;;;5005023;28;20208;-91
2023/09/07 22:12:54;;;;;;;12.10;8.05;;;16.40;97.90;;;;;;5004806;28;20261;-91
2023/09/07 22:20:49;;;;;;;11.38;8.75;;;16.40;97.80;;;;;;5009224;28;20209;-91
2023/09/07 22:23:20;;;;;;;14.95;10.00;;;16.50;97.70;;;;;;5013106;28;21219;-91
2023/09/07 22:25:49;;;;;;;13.40;9.73;;;16.60;97.30;;;;;;5020115;28;20215;-91
2023/09/07 22:28:18;;;;;;;14.48;10.23;;;16.60;97.30;;;;;;5016671;28;21064;-91
2023/09/07 22:36:18;;;;;;;10.90;8.60;;;16.40;97.20;;;;;;4987010;28;20283;-91
2023/09/07 22:38:45;;;;;;;13.77;9.27;;;16.20;97.20;;;;;;4995484;28;21443;-91
2023/09/07 22:41:13;;;;;;;12.15;8.55;;;16.10;97.90;;;;;;5005551;28;20201;-92
2023/09/07 22:43:40;;;;;;;11.10;7.78;;;16.10;97.80;;;;;;5000530;28;20230;-91
2023/09/07 22:46:10;;;;;;;14.65;7.50;;;16.10;97.40;;;;;;5010087;28;20671;-91
2023/09/07 22:51:22;;;;;;;11.35;7.93;;;15.90;98.10;;;;;;5002905;28;20223;-91
2023/09/07 22:53:49;;;;;;;9.63;7.90;;;15.80;98.40;;;;;;4995903;28;20680;-91
2023/09/07 22:56:16;;;;;;;9.95;7.88;;;15.70;98.70;;;;;;4994650;28;20908;-90
2023/09/07 22:58:47;;;;;;;11.05;7.80;;;15.70;99.40;;;;;;5007704;28;20330;-90
2023/09/07 23:01:14;;;;;;;10.93;7.88;;;15.60;99.40;;;;;;5007060;28;20206;-91
2023/09/07 23:06:24;;;;;;;12.38;8.20;;;15.60;99.70;;;;;;5005744;28;20282;-91
2023/09/07 23:11:35;;;;;;;9.48;7.90;;;15.50;99.90;;;;;;5002121;28;20258;-91
2023/09/07 23:16:43;;;;;;;10.43;7.80;;;15.40;99.90;;;;;;4998893;28;20222;-91
2023/09/07 23:21:52;;;;;;;11.15;7.72;;;15.20;99.90;;;;;;4998943;28;20215;-91
2023/09/07 23:24:19;;;;;;;12.13;8.13;;;15.20;99.90;;;;;;5007162;28;20587;-91
2023/09/07 23:26:47;;;;;;;9.80;7.93;;;15.20;99.90;;;;;;4977365;28;20203;-91
2023/09/07 23:29:14;;;;;;;11.00;8.35;;;15.20;99.90;;;;;;5009483;28;20202;-91
2023/09/07 23:31:43;;;;;;;11.57;8.82;;;15.20;99.90;;;;;;5009528;28;20840;-91
2023/09/07 23:36:53;;;;;;;10.75;8.02;;;15.30;99.90;;;;;;4985891;28;20234;-91
2023/09/07 23:39:20;;;;;;;13.25;8.45;;;15.20;99.90;;;;;;5009798;28;20199;-91
2023/09/07 23:41:47;;;;;;;13.95;8.23;;;15.30;99.90;;;;;;4980341;28;20188;-91
2023/09/07 23:44:14;;;;;;;10.35;8.18;;;15.20;99.90;;;;;;4996743;28;20200;-91
2023/09/07 23:46:41;;;;;;;9.20;8.15;;;15.20;99.90;;;;;;4988909;28;20210;-91
2023/09/07 23:49:08;;;;;;;8.88;7.55;;;15.30;99.90;;;;;;5003889;28;20195;-91
2023/09/07 23:57:04;;;;;;;10.02;7.38;;;15.30;99.90;;;;;;4976156;28;20227;-91
2023/09/07 23:59:31;;;;;;;11.55;8.30;;;15.10;99.90;;;;;;4988198;28;20206;-91
